Share

Kivalina, AK

Noatak (PAWN) Alt. 85 ft | 67.57 °N, 162.98 °W | Change Station

Current weather conditions updated 2 minutes ago

Clear
Ciel dégagé
36 ° F
Paraît 29 ° F
N
8
Vent Variable Vent de NNE
Gusts 16 mph
Lever du soleil 6:56 AM
Coucher du soleil 10:55 PM
Lune Lune gibbeuse décroissante

Demain il est prévu de faire plus froid qu’aujourd’hui.

Pression 29.57 pouce
Visibilité 10.0 Miles terrestres
Nuages Ciel dégagé
Refroidissement éolien 29 ° F
Point de rosée 21 ° F
Humidité 56%
Précipitations 0.00 pouce
Profondeur de la couche neigeuse Non disponible.
UV 1 sur 16
Pollen Non disponible.
Qualité de l'air Non disponible.
Flu Activity Sporadic
METAR PAWN 180336Z AUTO 02007G14KT 10SM CLR 02/M06 A2957 RMK AO1

More Conditions Fewer Conditions

Pression 29.57 pouce
Visibilité 10.0 Miles terrestres
Nuages Ciel dégagé
Refroidissement éolien 29 ° F
Point de rosée 21 ° F
Humidité 56%
Précipitations 0.00 pouce
Profondeur de la couche neigeuse Non disponible.
UV 1 sur 16
Pollen Non disponible.
Qualité de l'air Non disponible.
Flu Activity Sporadic
METAR PAWN 180336Z AUTO 02007G14KT 10SM CLR 02/M06 A2957 RMK AO1

More Conditions Fewer Conditions

10-Day Forecast

Almanac

Astronomie

Apr. 17, 2014 Lever Coucher
Temps réel 06:56 AKDT 22:55 AKDT
Crépuscule civil 05:45 AKDT 00:06 AKDT
Crépuscule nautique 03:26 AKDT 02:21 AKDT
Crépuscule astronomique Sun does not rise Sun does not rise
Lune 01:44 AKDT (4/17) 07:36 AKDT (4/17)
Durée de lumière visible 18h 21m
Longueur du jour
15h 58m
Tomorrow will be 8m 11s longer.
Lune gibbeuse décroissante, 91% of the Moon is Illuminated
Aujourd'hui
Lune gibbeuse décroissante
avr 22
Dernier quartier
avr 29
Nouveau
mai 6
Premier quartier
mai 14
Pleine lune

Extrêmes aujourd'hui

State Highs State Lows

Community

  • SUNRISE THROUGH THE TREES.
    SUNRISE THROUGH THE TREES.
  • Dog Wood Blossoms
    Dog Wood Blossoms
  • Morning Light
    Morning Light
  • New Day
    New Day
  • Lake Michigan Sunrise
    Lake Michigan Sunrise

WunderPhotos

Upload Photos

1,702,240 Photos téléchargées !

WunderBlogs® & News

Nearby

Qualité de l'air

Not available.

Épaisseur de neige

Station Depth Altitude
Pargon Creek 3 in 300 ft
Rocky Point 6 in 500 ft
Gobblers Knob 8 in 2030 ft
Coldfoot 26 in 1040 ft
Atigun Pass 37 in 4800 ft

Températures des eaux côtières

Lieu Température
Aucun rapport de station

Activité sismique

Ville Distance Mag. Time & Date
No recent earthquake activity has been reported nearby.
Minimum magnitude displayed is 2.5.

Stations météo à proximité

Il n'y a aucune station météorologique personnelle dans cette zone.

What do you think?

We're not finished. Please let us know what you like, what you don't like, and what you are still missing.